Time,TemperatureF,DewpointF,PressureIn,WindDirection,WindDirectionDegrees,WindSpeedMPH,WindSpeedGustMPH,Humidity,HourlyPrecipIn,Conditions,Clouds,dailyrainin,SolarRadiationWatts/m^2,SoftwareType,DateUTC
2013-05-04 00:00:00,58.0,22.0,-100.00,WNW,295,2.0,12.0,25,0.00,,,0.00,0.000000,,2013-05-04 07:00:00,
2013-05-04 00:32:00,58.0,22.0,-100.00,WNW,295,2.0,12.0,25,0.00,,,0.00,0.000000,,2013-05-04 07:32:00,
2013-05-04 00:42:00,58.0,22.0,-100.00,WNW,295,2.0,12.0,25,0.00,,,0.00,0.000000,,2013-05-04 07:42:00,
2013-05-04 00:52:00,58.0,22.0,-100.00,WNW,295,2.0,12.0,25,0.00,,,0.00,0.000000,,2013-05-04 07:52:00,
2013-05-04 01:00:00,58.0,22.0,-100.00,NW,319,1.0,10.0,25,0.00,,,0.00,0.000000,,2013-05-04 08:00:00,
2013-05-04 01:32:00,58.0,22.0,-100.00,NW,319,1.0,10.0,25,0.00,,,0.00,0.000000,,2013-05-04 08:32:00,
2013-05-04 01:42:00,58.0,22.0,-100.00,NW,319,1.0,10.0,25,0.00,,,0.00,0.000000,,2013-05-04 08:42:00,
2013-05-04 01:52:00,58.0,22.0,-100.00,NW,319,1.0,10.0,25,0.00,,,0.00,0.000000,,2013-05-04 08:52:00,
2013-05-04 02:00:00,56.0,23.0,-100.00,West,260,3.0,8.0,27,0.00,,,0.00,0.000000,,2013-05-04 09:00:00,
2013-05-04 02:32:00,56.0,23.0,-100.00,West,260,3.0,8.0,27,0.00,,,0.00,0.000000,,2013-05-04 09:32:00,
2013-05-04 02:42:00,56.0,23.0,-100.00,West,260,3.0,8.0,27,0.00,,,0.00,0.000000,,2013-05-04 09:42:00,
2013-05-04 02:53:00,56.0,23.0,-100.00,West,260,3.0,8.0,27,0.00,,,0.00,0.000000,,2013-05-04 09:53:00,
2013-05-04 03:00:00,54.0,24.0,-100.00,NW,315,1.0,9.0,31,0.00,,,0.00,0.000000,,2013-05-04 10:00:00,
2013-05-04 03:23:00,54.0,24.0,-100.00,NW,315,1.0,9.0,31,0.00,,,0.00,0.000000,,2013-05-04 10:23:00,
2013-05-04 03:33:00,54.0,24.0,-100.00,NW,315,1.0,9.0,31,0.00,,,0.00,0.000000,,2013-05-04 10:33:00,
2013-05-04 03:42:00,54.0,24.0,-100.00,NW,315,1.0,9.0,31,0.00,,,0.00,0.000000,,2013-05-04 10:42:00,
2013-05-04 03:53:00,54.0,24.0,-100.00,NW,315,1.0,9.0,31,0.00,,,0.00,0.000000,,2013-05-04 10:53:00,
2013-05-04 04:00:00,55.0,26.0,-100.00,NW,325,0.0,8.0,32,0.00,,,0.00,0.000000,,2013-05-04 11:00:00,
2013-05-04 04:22:00,55.0,26.0,-100.00,NW,325,0.0,8.0,32,0.00,,,0.00,0.000000,,2013-05-04 11:22:00,
2013-05-04 04:32:00,55.0,26.0,-100.00,NW,325,0.0,8.0,32,0.00,,,0.00,0.000000,,2013-05-04 11:32:00,
2013-05-04 04:46:00,55.0,26.0,-100.00,NW,325,0.0,8.0,32,0.00,,,0.00,0.000000,,2013-05-04 11:46:00,
2013-05-04 04:59:00,55.0,26.0,-100.00,NW,325,0.0,8.0,32,0.00,,,0.00,0.000000,,2013-05-04 11:59:00,
2013-05-04 05:00:00,55.0,27.0,-100.00,NNW,332,0.0,3.0,34,0.00,,,0.00,0.000000,,2013-05-04 12:00:00,
2013-05-04 05:37:00,55.0,27.0,-100.00,NNW,332,0.0,3.0,34,0.00,,,0.00,0.000000,,2013-05-04 12:37:00,
2013-05-04 05:52:00,55.0,27.0,-100.00,NNW,332,0.0,3.0,34,0.00,,,0.00,0.000000,,2013-05-04 12:52:00,
2013-05-04 06:00:00,53.0,31.0,-100.00,WNW,289,0.0,5.0,43,0.00,,,-99.99,0.000000,,2013-05-04 13:00:00,
2013-05-04 06:32:00,53.0,31.0,-100.00,WNW,289,0.0,5.0,43,0.00,,,-99.99,0.000000,,2013-05-04 13:32:00,
2013-05-04 06:42:00,53.0,31.0,-100.00,WNW,289,0.0,5.0,43,0.00,,,-99.99,0.000000,,2013-05-04 13:42:00,
2013-05-04 06:52:00,53.0,31.0,-100.00,WNW,289,0.0,5.0,43,0.00,,,-99.99,0.000000,,2013-05-04 13:52:00,
2013-05-04 07:21:00,51.0,26.0,-100.00,WNW,298,1.0,4.0,38,0.00,,,0.00,0.000000,,2013-05-04 14:21:00,
2013-05-04 07:32:00,51.0,26.0,-100.00,WNW,298,1.0,4.0,38,0.00,,,0.00,0.000000,,2013-05-04 14:32:00,
2013-05-04 07:42:00,51.0,26.0,-100.00,WNW,298,1.0,4.0,38,0.00,,,0.00,0.000000,,2013-05-04 14:42:00,
2013-05-04 07:52:00,51.0,26.0,-100.00,WNW,298,1.0,4.0,38,0.00,,,0.00,0.000000,,2013-05-04 14:52:00,
2013-05-04 08:00:00,56.0,22.0,-100.00,NNE,19,3.0,4.0,26,0.00,,,0.00,28.000000,,2013-05-04 15:00:00,
2013-05-04 08:22:00,56.0,22.0,-100.00,NNE,19,3.0,4.0,26,0.00,,,0.00,28.000000,,2013-05-04 15:22:00,
2013-05-04 08:33:00,56.0,22.0,-100.00,NNE,19,3.0,4.0,26,0.00,,,0.00,28.000000,,2013-05-04 15:33:00,
2013-05-04 08:43:00,56.0,22.0,-100.00,NNE,19,3.0,4.0,26,0.00,,,0.00,28.000000,,2013-05-04 15:43:00,
2013-05-04 08:53:00,56.0,22.0,-100.00,NNE,19,3.0,4.0,26,0.00,,,0.00,28.000000,,2013-05-04 15:53:00,
2013-05-04 09:00:00,63.0,22.0,-100.00,NNE,21,3.0,6.0,21,0.00,,,0.00,291.000000,,2013-05-04 16:00:00,
2013-05-04 09:33:00,63.0,22.0,-100.00,NNE,21,3.0,6.0,21,0.00,,,0.00,291.000000,,2013-05-04 16:33:00,
2013-05-04 09:42:00,63.0,22.0,-100.00,NNE,21,3.0,6.0,21,0.00,,,0.00,291.000000,,2013-05-04 16:42:00,
2013-05-04 09:52:00,63.0,22.0,-100.00,NNE,21,3.0,6.0,21,0.00,,,0.00,291.000000,,2013-05-04 16:52:00,
2013-05-04 10:00:00,68.0,19.0,-100.00,NNE,20,4.0,8.0,15,0.00,,,0.00,543.000000,,2013-05-04 17:00:00,
2013-05-04 10:32:00,68.0,19.0,-100.00,NNE,20,4.0,8.0,15,0.00,,,0.00,543.000000,,2013-05-04 17:32:00,
2013-05-04 10:42:00,68.0,19.0,-100.00,NNE,20,4.0,8.0,15,0.00,,,0.00,543.000000,,2013-05-04 17:42:00,
2013-05-04 10:52:00,68.0,19.0,-100.00,NNE,20,4.0,8.0,15,0.00,,,0.00,543.000000,,2013-05-04 17:52:00,
2013-05-04 11:00:00,72.0,18.0,-100.00,North,5,4.0,8.0,13,0.00,,,0.00,764.000000,,2013-05-04 18:00:00,
2013-05-04 11:32:00,72.0,18.0,-100.00,North,5,4.0,8.0,13,0.00,,,0.00,764.000000,,2013-05-04 18:32:00,
2013-05-04 11:42:00,72.0,18.0,-100.00,North,5,4.0,8.0,13,0.00,,,0.00,764.000000,,2013-05-04 18:42:00,
2013-05-04 11:52:00,72.0,18.0,-100.00,North,5,4.0,8.0,13,0.00,,,0.00,764.000000,,2013-05-04 18:52:00,
2013-05-04 12:32:00,75.0,21.0,-100.00,NW,313,2.0,12.0,13,0.00,,,0.00,940.000000,,2013-05-04 19:32:00,
2013-05-04 12:42:00,75.0,21.0,-100.00,NW,313,2.0,12.0,13,0.00,,,0.00,940.000000,,2013-05-04 19:42:00,
2013-05-04 12:52:00,75.0,21.0,-100.00,NW,313,2.0,12.0,13,0.00,,,0.00,940.000000,,2013-05-04 19:52:00,
2013-05-04 13:32:00,77.0,20.0,-100.00,NE,39,1.0,12.0,12,0.00,,,0.00,891.000000,,2013-05-04 20:32:00,
2013-05-04 14:00:00,75.0,26.0,-100.00,NW,313,3.0,7.0,16,-99.99,,,0.00,835.000000,,2013-05-04 21:00:00,
2013-05-04 14:33:00,75.0,26.0,-100.00,NW,313,3.0,7.0,16,-99.99,,,0.00,835.000000,,2013-05-04 21:33:00,
2013-05-04 15:00:00,72.0,18.0,-100.00,NE,46,5.0,16.0,13,0.00,,,-99.99,445.000000,,2013-05-04 22:00:00,
2013-05-04 15:22:00,72.0,18.0,-100.00,NE,46,5.0,16.0,13,0.00,,,-99.99,445.000000,,2013-05-04 22:22:00,
2013-05-04 15:33:00,72.0,18.0,-100.00,NE,46,5.0,16.0,13,0.00,,,-99.99,445.000000,,2013-05-04 22:33:00,
2013-05-04 15:42:00,72.0,18.0,-100.00,NE,46,5.0,16.0,13,0.00,,,-99.99,445.000000,,2013-05-04 22:42:00,
2013-05-04 15:52:00,72.0,18.0,-100.00,NE,46,5.0,16.0,13,0.00,,,-99.99,445.000000,,2013-05-04 22:52:00,
2013-05-04 16:00:00,76.0,16.0,-100.00,NW,313,5.0,18.0,10,0.00,,,-99.99,583.000000,,2013-05-04 23:00:00,
2013-05-04 16:22:00,76.0,16.0,-100.00,NW,313,5.0,18.0,10,0.00,,,-99.99,583.000000,,2013-05-04 23:22:00,
2013-05-04 16:32:00,76.0,16.0,-100.00,NW,313,5.0,18.0,10,0.00,,,-99.99,583.000000,,2013-05-04 23:32:00,
2013-05-04 16:42:00,76.0,16.0,-100.00,NW,313,5.0,18.0,10,0.00,,,-99.99,583.000000,,2013-05-04 23:42:00,
2013-05-04 16:52:00,76.0,16.0,-100.00,NW,313,5.0,18.0,10,0.00,,,-99.99,583.000000,,2013-05-04 23:52:00,
2013-05-04 17:00:00,75.0,15.0,-100.00,WNW,283,6.0,16.0,10,0.00,,,0.00,895.000000,,2013-05-05 00:00:00,
2013-05-04 17:32:00,75.0,15.0,-100.00,WNW,283,6.0,16.0,10,0.00,,,0.00,895.000000,,2013-05-05 00:32:00,
2013-05-04 17:42:00,75.0,15.0,-100.00,WNW,283,6.0,16.0,10,0.00,,,0.00,895.000000,,2013-05-05 00:42:00,
2013-05-04 17:52:00,75.0,15.0,-100.00,WNW,283,6.0,16.0,10,0.00,,,0.00,895.000000,,2013-05-05 00:52:00,
2013-05-04 18:00:00,75.0,19.0,-100.00,WNW,295,5.0,24.0,12,0.00,,,0.00,700.000000,,2013-05-05 01:00:00,
2013-05-04 18:22:00,75.0,19.0,-100.00,WNW,295,5.0,24.0,12,0.00,,,0.00,700.000000,,2013-05-05 01:22:00,
2013-05-04 18:32:00,75.0,19.0,-100.00,WNW,295,5.0,24.0,12,0.00,,,0.00,700.000000,,2013-05-05 01:32:00,
2013-05-04 18:42:00,75.0,19.0,-100.00,WNW,295,5.0,24.0,12,0.00,,,0.00,700.000000,,2013-05-05 01:42:00,
2013-05-04 18:52:00,75.0,19.0,-100.00,WNW,295,5.0,24.0,12,0.00,,,0.00,700.000000,,2013-05-05 01:52:00,
2013-05-04 19:00:00,72.0,22.0,-100.00,West,278,7.0,25.0,15,0.00,,,0.00,462.000000,,2013-05-05 02:00:00,
2013-05-04 19:32:00,72.0,22.0,-100.00,West,278,7.0,25.0,15,0.00,,,0.00,462.000000,,2013-05-05 02:32:00,
2013-05-04 19:42:00,72.0,22.0,-100.00,West,278,7.0,25.0,15,0.00,,,0.00,462.000000,,2013-05-05 02:42:00,
2013-05-04 19:52:00,72.0,22.0,-100.00,West,278,7.0,25.0,15,0.00,,,0.00,462.000000,,2013-05-05 02:52:00,
2013-05-04 20:00:00,65.0,23.0,-100.00,West,276,9.0,18.0,20,-99.99,,,0.00,81.000000,,2013-05-05 03:00:00,
2013-05-04 20:22:00,65.0,23.0,-100.00,West,276,9.0,18.0,20,-99.99,,,0.00,81.000000,,2013-05-05 03:22:00,
2013-05-04 20:33:00,65.0,23.0,-100.00,West,276,9.0,18.0,20,-99.99,,,0.00,81.000000,,2013-05-05 03:33:00,
2013-05-04 20:42:00,65.0,23.0,-100.00,West,276,9.0,18.0,20,-99.99,,,0.00,81.000000,,2013-05-05 03:42:00,
2013-05-04 20:53:00,65.0,23.0,-100.00,West,276,9.0,18.0,20,-99.99,,,0.00,81.000000,,2013-05-05 03:53:00,
2013-05-04 21:00:00,62.0,24.0,-100.00,WNW,294,3.0,19.0,23,0.00,,,0.00,11.000000,,2013-05-05 04:00:00,
2013-05-04 21:33:00,62.0,24.0,-100.00,WNW,294,3.0,19.0,23,0.00,,,0.00,11.000000,,2013-05-05 04:33:00,
2013-05-04 21:43:00,62.0,24.0,-100.00,WNW,294,3.0,19.0,23,0.00,,,0.00,11.000000,,2013-05-05 04:43:00,
2013-05-04 21:52:00,62.0,24.0,-100.00,WNW,294,3.0,19.0,23,0.00,,,0.00,11.000000,,2013-05-05 04:52:00,
2013-05-04 22:00:00,59.0,24.0,-100.00,West,261,5.0,17.0,26,0.00,,,0.00,0.000000,,2013-05-05 05:00:00,
2013-05-04 22:22:00,59.0,24.0,-100.00,West,261,5.0,17.0,26,0.00,,,0.00,0.000000,,2013-05-05 05:22:00,
2013-05-04 22:32:00,59.0,24.0,-100.00,West,261,5.0,17.0,26,0.00,,,0.00,0.000000,,2013-05-05 05:32:00,
2013-05-04 22:42:00,59.0,24.0,-100.00,West,261,5.0,17.0,26,0.00,,,0.00,0.000000,,2013-05-05 05:42:00,
2013-05-04 22:52:00,59.0,24.0,-100.00,West,261,5.0,17.0,26,0.00,,,0.00,0.000000,,2013-05-05 05:52:00,
2013-05-04 23:00:00,56.0,23.0,-100.00,West,271,4.0,11.0,27,0.00,,,0.00,0.000000,,2013-05-05 06:00:00,
2013-05-04 23:32:00,56.0,23.0,-100.00,West,271,4.0,11.0,27,0.00,,,0.00,0.000000,,2013-05-05 06:32:00,
2013-05-04 23:42:00,56.0,23.0,-100.00,West,271,4.0,11.0,27,0.00,,,0.00,0.000000,,2013-05-05 06:42:00,
2013-05-04 23:52:00,56.0,23.0,-100.00,West,271,4.0,11.0,27,0.00,,,0.00,0.000000,,2013-05-05 06:52:00,